Time;durP1;ratioP1;P1;durP2;ratioP2;P2;SDS_P1;SDS_P2;PMS_P1;PMS_P2;Temp;Humidity;BMP_temperature;BMP_pressure;BME280_temperature;BME280_humidity;BME280_pressure;Samples;Min_cycle;Max_cycle;Signal;HPM_P1;HPM_P2
2024/01/29 00:00:24;;;;;;;11.30;6.87;;;-1.10;51.50;;;;;;5066817;28;46897;-81
2024/01/29 00:02:50;;;;;;;12.37;7.10;;;-1.10;51.60;;;;;;5067729;28;46677;-81
2024/01/29 00:05:15;;;;;;;12.63;6.97;;;-1.10;51.50;;;;;;5065407;28;47492;-80
2024/01/29 00:07:41;;;;;;;17.47;8.47;;;-1.10;51.60;;;;;;5059029;28;46818;-81
2024/01/29 00:10:07;;;;;;;13.00;7.60;;;-1.10;51.70;;;;;;5069376;28;46762;-81
2024/01/29 00:12:33;;;;;;;13.25;7.85;;;-1.10;52.00;;;;;;5065875;27;47070;-79
2024/01/29 00:14:59;;;;;;;15.87;8.00;;;-1.00;52.00;;;;;;5065649;27;47413;-78
2024/01/29 00:17:24;;;;;;;12.57;6.87;;;-1.00;52.10;;;;;;5055705;28;46475;-79
2024/01/29 00:19:50;;;;;;;12.47;7.43;;;-1.00;52.00;;;;;;5049370;28;46380;-79
2024/01/29 00:22:15;;;;;;;9.83;6.57;;;-1.00;52.00;;;;;;5068256;28;46584;-79
2024/01/29 00:24:41;;;;;;;14.67;6.33;;;-1.10;51.90;;;;;;5064496;28;45964;-77
2024/01/29 00:27:06;;;;;;;17.30;7.87;;;-1.10;51.80;;;;;;5066515;28;46118;-79
2024/01/29 00:29:32;;;;;;;11.77;7.70;;;-1.10;52.00;;;;;;5067353;28;46431;-80
2024/01/29 00:31:58;;;;;;;11.30;7.67;;;-1.20;52.20;;;;;;5065019;28;46679;-79
2024/01/29 00:34:23;;;;;;;13.45;7.85;;;-1.20;52.20;;;;;;5065508;28;46852;-78
2024/01/29 00:36:49;;;;;;;13.73;7.70;;;-1.20;52.50;;;;;;5054052;28;47523;-78
2024/01/29 00:39:14;;;;;;;13.37;8.10;;;-1.20;52.40;;;;;;5066932;28;46486;-78
2024/01/29 00:41:40;;;;;;;13.27;7.57;;;-1.20;52.40;;;;;;5048357;28;46502;-78
2024/01/29 00:44:06;;;;;;;12.67;7.83;;;-1.20;52.20;;;;;;5066460;28;46506;-77
2024/01/29 00:46:31;;;;;;;14.57;8.23;;;-1.20;52.20;;;;;;5065106;28;46013;-78
2024/01/29 00:48:57;;;;;;;12.40;8.30;;;-1.20;52.20;;;;;;5064091;28;46818;-79
2024/01/29 00:51:22;;;;;;;13.80;8.23;;;-1.20;52.10;;;;;;5068168;28;46380;-78
2024/01/29 00:53:48;;;;;;;11.40;6.70;;;-1.20;52.10;;;;;;5065467;27;46431;-78
2024/01/29 00:56:14;;;;;;;12.40;8.40;;;-1.20;52.10;;;;;;5067678;28;46336;-79
2024/01/29 00:58:44;;;;;;;15.37;7.37;;;-1.30;52.10;;;;;;5064475;28;46947;-79
2024/01/29 01:01:10;;;;;;;14.60;7.80;;;-1.30;52.20;;;;;;5066706;27;46539;-79
2024/01/29 01:03:35;;;;;;;13.27;7.40;;;-1.30;52.30;;;;;;5046307;28;46524;-78
2024/01/29 01:06:01;;;;;;;14.23;8.33;;;-1.30;52.30;;;;;;5054947;28;46868;-80
2024/01/29 01:08:26;;;;;;;13.93;7.37;;;-1.30;52.50;;;;;;5046823;28;46257;-78
2024/01/29 01:10:52;;;;;;;15.60;7.80;;;-1.40;52.40;;;;;;5065578;28;46831;-77
2024/01/29 01:13:17;;;;;;;19.00;8.13;;;-1.40;52.60;;;;;;5064492;28;46522;-78
2024/01/29 01:15:43;;;;;;;13.60;7.03;;;-1.50;52.70;;;;;;5064488;28;46894;-77
2024/01/29 01:18:08;;;;;;;11.70;6.60;;;-1.50;52.70;;;;;;5063614;28;46463;-79
2024/01/29 01:20:34;;;;;;;18.63;7.47;;;-1.50;52.80;;;;;;5065049;28;46469;-80
2024/01/29 01:23:01;;;;;;;13.43;7.53;;;-1.50;53.00;;;;;;5065646;28;46438;-80
2024/01/29 01:25:27;;;;;;;11.60;7.28;;;-1.50;52.90;;;;;;5063911;27;46497;-79
2024/01/29 01:27:53;;;;;;;10.30;6.07;;;-1.50;53.00;;;;;;5065724;28;46960;-80
2024/01/29 01:30:20;;;;;;;14.90;7.13;;;-1.50;52.70;;;;;;5063223;28;46562;-80
2024/01/29 01:32:46;;;;;;;9.85;6.35;;;-1.50;51.70;;;;;;5064940;27;49464;-79
2024/01/29 01:35:12;;;;;;;10.60;6.43;;;-1.50;52.80;;;;;;5070932;28;46378;-81
2024/01/29 01:37:37;;;;;;;13.47;7.30;;;-1.50;52.80;;;;;;5065459;28;46460;-80
2024/01/29 01:40:04;;;;;;;11.87;6.80;;;-1.50;52.70;;;;;;5068972;28;47531;-80
2024/01/29 01:42:30;;;;;;;13.38;6.00;;;-1.50;52.70;;;;;;5055877;28;48217;-79
2024/01/29 01:44:55;;;;;;;11.87;6.50;;;-1.50;53.00;;;;;;5064010;28;46750;-78
2024/01/29 01:47:21;;;;;;;11.03;6.70;;;-1.50;52.90;;;;;;5068106;27;46892;-79
2024/01/29 01:49:47;;;;;;;13.17;6.30;;;-1.50;52.90;;;;;;5069521;27;46735;-79
2024/01/29 01:52:14;;;;;;;10.02;6.10;;;-1.60;52.90;;;;;;5068489;28;47161;-79
2024/01/29 01:54:40;;;;;;;14.23;7.53;;;-1.60;53.00;;;;;;5069738;28;46089;-80
2024/01/29 01:57:06;;;;;;;14.00;6.27;;;-1.60;53.10;;;;;;5070214;27;46433;-80
2024/01/29 01:59:35;;;;;;;9.30;5.93;;;-1.60;53.20;;;;;;5068270;28;46713;-82
2024/01/29 02:02:01;;;;;;;11.32;6.15;;;-1.70;53.10;;;;;;5068975;28;46631;-81
2024/01/29 02:04:27;;;;;;;12.70;5.73;;;-1.50;53.20;;;;;;5070094;27;47073;-79
2024/01/29 02:06:53;;;;;;;10.30;5.33;;;-1.70;53.10;;;;;;5070185;28;46578;-78
2024/01/29 02:09:19;;;;;;;10.65;6.22;;;-1.70;53.00;;;;;;5069136;28;45912;-80
2024/01/29 02:11:44;;;;;;;11.23;6.10;;;-1.60;52.90;;;;;;5068014;28;46435;-78
2024/01/29 02:14:10;;;;;;;9.60;5.90;;;-1.60;52.90;;;;;;5068656;27;46517;-81
2024/01/29 02:16:36;;;;;;;11.27;5.60;;;-1.70;52.90;;;;;;5058872;28;46855;-79
2024/01/29 02:19:07;;;;;;;13.90;6.50;;;-1.70;53.10;;;;;;5069658;28;46448;-81
2024/01/29 02:21:32;;;;;;;9.80;6.30;;;-1.70;53.20;;;;;;5067582;28;46249;-79
2024/01/29 02:23:58;;;;;;;13.00;6.33;;;-1.80;53.20;;;;;;5069582;28;46445;-79
2024/01/29 02:26:23;;;;;;;12.77;5.77;;;-1.80;53.40;;;;;;5069487;28;46712;-79
2024/01/29 02:28:49;;;;;;;8.13;5.40;;;-1.80;53.40;;;;;;5059395;28;47016;-80
2024/01/29 02:31:14;;;;;;;10.53;5.20;;;-1.80;53.50;;;;;;5070562;28;47200;-80
2024/01/29 02:33:40;;;;;;;9.70;6.03;;;-1.90;53.40;;;;;;5049821;28;46463;-79
2024/01/29 02:36:06;;;;;;;9.23;5.77;;;-1.90;53.50;;;;;;5052765;28;46883;-79
2024/01/29 02:38:31;;;;;;;17.53;5.40;;;-1.90;53.40;;;;;;5069868;28;46847;-80
2024/01/29 02:40:56;;;;;;;10.17;4.73;;;-1.90;53.50;;;;;;5059200;28;48033;-78
2024/01/29 02:43:22;;;;;;;10.60;5.07;;;-1.90;53.50;;;;;;5069561;28;46504;-79
2024/01/29 02:45:49;;;;;;;9.87;5.10;;;-1.90;53.50;;;;;;5068658;27;46525;-79
2024/01/29 02:48:14;;;;;;;9.55;5.40;;;-1.90;53.70;;;;;;5069137;28;47014;-80
2024/01/29 02:50:40;;;;;;;8.30;5.40;;;-1.90;53.80;;;;;;5069122;28;46831;-80
2024/01/29 02:53:05;;;;;;;10.27;5.23;;;-1.90;53.80;;;;;;5069682;27;46233;-79
2024/01/29 02:55:31;;;;;;;8.90;4.93;;;-1.90;53.80;;;;;;5068874;28;45822;-82
2024/01/29 02:57:56;;;;;;;8.70;5.27;;;-1.90;53.80;;;;;;5070160;28;46603;-80
2024/01/29 03:00:22;;;;;;;8.40;4.83;;;-2.00;53.80;;;;;;5058759;28;46531;-79
2024/01/29 03:02:48;;;;;;;6.63;4.43;;;-2.00;53.80;;;;;;5062504;28;45905;-79
2024/01/29 03:05:13;;;;;;;8.23;5.23;;;-2.00;54.00;;;;;;5056911;28;46534;-79
2024/01/29 03:07:39;;;;;;;8.73;4.80;;;-2.00;54.10;;;;;;5067612;28;45965;-81
2024/01/29 03:10:05;;;;;;;8.60;4.77;;;-2.10;53.90;;;;;;5050528;28;48259;-80
2024/01/29 03:12:30;;;;;;;8.32;5.20;;;-2.10;54.10;;;;;;5068264;28;46900;-80
2024/01/29 03:14:56;;;;;;;9.63;5.57;;;-2.10;54.20;;;;;;5071616;28;46375;-79
2024/01/29 03:17:21;;;;;;;9.57;5.27;;;-2.10;54.10;;;;;;5052763;28;46612;-80
2024/01/29 03:19:47;;;;;;;8.13;5.10;;;-2.10;54.10;;;;;;5066884;28;46428;-80
2024/01/29 03:22:13;;;;;;;8.50;5.70;;;-2.10;54.10;;;;;;5069673;28;46361;-79
2024/01/29 03:24:38;;;;;;;8.20;4.90;;;-2.10;54.10;;;;;;5053791;28;46882;-80
2024/01/29 03:27:04;;;;;;;7.33;4.40;;;-2.10;54.20;;;;;;5067930;27;46965;-80
2024/01/29 03:29:29;;;;;;;11.20;5.23;;;-2.10;54.20;;;;;;5059415;28;48272;-81
2024/01/29 03:31:55;;;;;;;11.23;5.77;;;-2.20;54.10;;;;;;5067557;28;46538;-81
2024/01/29 03:34:20;;;;;;;8.47;5.10;;;-2.20;54.00;;;;;;5069733;28;46317;-80
2024/01/29 03:36:46;;;;;;;9.83;5.50;;;-2.20;55.20;;;;;;5065829;28;46615;-80
2024/01/29 03:39:12;;;;;;;11.25;5.57;;;-2.20;54.10;;;;;;5068776;28;46822;-80
2024/01/29 03:41:37;;;;;;;10.83;5.60;;;-2.20;54.00;;;;;;5069494;27;46560;-82
2024/01/29 03:44:03;;;;;;;7.33;5.30;;;-2.20;54.20;;;;;;5067097;28;46949;-81
2024/01/29 03:46:29;;;;;;;11.33;5.97;;;-2.20;54.20;;;;;;5068266;28;46449;-81
2024/01/29 03:48:54;;;;;;;9.43;5.47;;;-2.20;54.00;;;;;;5046902;28;48056;-81
2024/01/29 03:51:20;;;;;;;8.97;5.77;;;-2.20;54.00;;;;;;5068378;28;46833;-81
2024/01/29 03:53:46;;;;;;;10.60;5.63;;;-2.20;54.00;;;;;;5052636;28;45888;-81
2024/01/29 03:56:11;;;;;;;11.30;5.40;;;-2.20;53.80;;;;;;5057385;28;46647;-80
2024/01/29 03:58:37;;;;;;;8.53;5.50;;;-2.20;53.90;;;;;;5070511;28;46443;-81
2024/01/29 04:01:02;;;;;;;9.40;5.50;;;-2.20;53.80;;;;;;5069418;28;46433;-80
2024/01/29 04:03:28;;;;;;;10.00;5.47;;;-2.20;53.90;;;;;;5070038;28;46792;-81
2024/01/29 04:05:54;;;;;;;10.47;5.13;;;-2.20;53.80;;;;;;5066323;28;46782;-80
2024/01/29 04:08:21;;;;;;;11.23;5.70;;;-2.20;53.80;;;;;;5068000;28;46763;-79
2024/01/29 04:10:47;;;;;;;13.20;6.05;;;-2.20;53.70;;;;;;5066488;28;46607;-79
2024/01/29 04:13:12;;;;;;;9.87;5.70;;;-2.20;53.60;;;;;;5049694;28;46571;-79
2024/01/29 04:15:38;;;;;;;9.87;5.73;;;-2.20;53.70;;;;;;5051785;28;46580;-80
2024/01/29 04:18:03;;;;;;;15.93;5.20;;;-2.20;53.70;;;;;;5068369;28;46106;-79
2024/01/29 04:20:29;;;;;;;11.63;5.47;;;-2.20;53.70;;;;;;5066039;28;46492;-80
2024/01/29 04:22:55;;;;;;;8.57;5.30;;;-2.10;52.70;;;;;;5067071;28;46680;-78
2024/01/29 04:25:21;;;;;;;7.93;4.73;;;-2.20;53.70;;;;;;5068272;28;46790;-79
2024/01/29 04:27:47;;;;;;;13.65;5.60;;;-2.20;53.70;;;;;;5064801;28;46508;-77
2024/01/29 04:30:13;;;;;;;10.37;5.53;;;-2.20;53.80;;;;;;5065116;28;46681;-80
2024/01/29 04:32:38;;;;;;;8.75;5.20;;;-2.30;53.80;;;;;;5064155;28;46534;-82
2024/01/29 04:35:04;;;;;;;6.93;4.60;;;-2.30;54.10;;;;;;5045642;27;46422;-81
2024/01/29 04:37:30;;;;;;;8.27;4.40;;;-2.40;54.10;;;;;;5064310;27;47143;-78
2024/01/29 04:39:55;;;;;;;7.63;4.30;;;-2.40;54.40;;;;;;5064210;27;46576;-79
2024/01/29 04:42:21;;;;;;;8.30;4.77;;;-2.50;54.40;;;;;;5066424;27;46617;-80
2024/01/29 04:44:46;;;;;;;7.57;4.63;;;-2.40;54.60;;;;;;5064369;28;46359;-79
2024/01/29 04:47:12;;;;;;;8.30;4.53;;;-2.40;54.40;;;;;;5066339;27;47139;-80
2024/01/29 04:49:37;;;;;;;8.20;4.80;;;-2.40;54.40;;;;;;5062167;27;46483;-79
2024/01/29 04:52:03;;;;;;;7.57;4.10;;;-2.40;55.50;;;;;;5064563;28;46967;-79
2024/01/29 04:54:30;;;;;;;7.07;3.93;;;-2.40;54.30;;;;;;5047774;28;47081;-79
2024/01/29 04:56:55;;;;;;;7.75;4.60;;;-2.40;54.20;;;;;;5065442;28;46590;-79
2024/01/29 04:59:21;;;;;;;7.23;4.40;;;-2.40;54.20;;;;;;5046450;28;46922;-78
2024/01/29 05:01:46;;;;;;;8.13;4.40;;;-2.40;54.10;;;;;;5064052;27;46837;-78
2024/01/29 05:04:12;;;;;;;6.57;4.53;;;-2.40;54.10;;;;;;5066094;28;47269;-76
2024/01/29 05:06:37;;;;;;;7.00;4.30;;;-2.40;55.40;;;;;;5049827;28;48183;-79
2024/01/29 05:09:03;;;;;;;4.67;3.80;;;-2.40;54.30;;;;;;5064428;28;46698;-79
2024/01/29 05:11:29;;;;;;;7.30;3.83;;;-2.40;54.10;;;;;;5066956;28;47191;-81
2024/01/29 05:13:54;;;;;;;7.47;4.27;;;-2.40;53.90;;;;;;5067503;28;46474;-80
2024/01/29 05:16:20;;;;;;;8.87;4.50;;;-2.40;53.90;;;;;;5046942;28;49300;-79
2024/01/29 05:18:47;;;;;;;7.97;4.60;;;-2.40;53.80;;;;;;5065824;28;46449;-79
2024/01/29 05:21:13;;;;;;;6.50;3.85;;;-2.40;53.90;;;;;;5071459;28;46353;-81
2024/01/29 05:23:38;;;;;;;7.70;4.40;;;-2.40;53.80;;;;;;5070692;28;46542;-79
2024/01/29 05:26:04;;;;;;;7.03;4.07;;;-2.40;53.80;;;;;;5072133;27;47136;-79
2024/01/29 05:28:30;;;;;;;8.03;4.60;;;-2.30;53.70;;;;;;5052672;28;47025;-79
2024/01/29 05:30:56;;;;;;;7.33;4.50;;;-2.30;53.60;;;;;;5073230;27;46518;-79
2024/01/29 05:33:21;;;;;;;6.30;4.13;;;-2.30;53.60;;;;;;5073505;28;46655;-80
2024/01/29 05:35:47;;;;;;;6.50;4.20;;;-2.30;53.80;;;;;;5072089;28;47533;-80
2024/01/29 05:38:12;;;;;;;5.43;3.73;;;-2.30;53.70;;;;;;5054618;27;46388;-79
2024/01/29 05:40:38;;;;;;;5.63;4.30;;;-2.30;53.50;;;;;;5062541;28;47328;-80
2024/01/29 05:43:03;;;;;;;8.80;4.80;;;-2.30;53.60;;;;;;5073980;28;46665;-79
2024/01/29 05:45:29;;;;;;;6.77;4.50;;;-2.30;53.60;;;;;;5074258;27;46796;-81
2024/01/29 05:47:55;;;;;;;11.40;5.10;;;-2.20;53.60;;;;;;5073767;28;46711;-81
2024/01/29 05:50:20;;;;;;;7.47;4.03;;;-2.30;53.80;;;;;;5072602;27;46497;-80
2024/01/29 05:52:46;;;;;;;8.13;4.77;;;-2.30;53.70;;;;;;5061773;27;46399;-80
2024/01/29 05:55:11;;;;;;;8.40;4.57;;;-2.30;53.70;;;;;;5075740;28;47785;-78
2024/01/29 05:57:37;;;;;;;6.70;4.33;;;-2.30;53.60;;;;;;5068884;27;46582;-80
2024/01/29 06:00:06;;;;;;;6.70;4.80;;;-2.30;53.80;;;;;;5067701;27;46751;-79
2024/01/29 06:02:32;;;;;;;9.15;4.07;;;-2.30;53.80;;;;;;5068614;28;46372;-77
2024/01/29 06:04:58;;;;;;;9.00;4.50;;;-2.30;53.70;;;;;;5070312;27;46492;-77
2024/01/29 06:07:23;;;;;;;6.60;4.30;;;-2.30;53.80;;;;;;5069967;28;46405;-80
2024/01/29 06:09:49;;;;;;;6.80;4.20;;;-2.30;53.70;;;;;;5068483;27;46857;-78
2024/01/29 06:12:14;;;;;;;6.53;3.77;;;-2.20;53.60;;;;;;5070582;28;46454;-79
2024/01/29 06:14:40;;;;;;;6.60;3.83;;;-2.30;53.40;;;;;;5070612;27;47406;-78
2024/01/29 06:17:05;;;;;;;6.90;4.00;;;-2.20;53.30;;;;;;5068685;27;46489;-81
2024/01/29 06:19:31;;;;;;;6.20;4.03;;;-2.20;53.20;;;;;;5068982;28;46813;-79
2024/01/29 06:21:57;;;;;;;7.03;3.80;;;-2.10;53.20;;;;;;5051313;28;46955;-79
2024/01/29 06:24:22;;;;;;;7.50;4.13;;;-2.10;53.00;;;;;;5066670;28;47678;-79
2024/01/29 06:26:48;;;;;;;5.83;3.73;;;-2.10;53.00;;;;;;5064003;28;46526;-78
2024/01/29 06:29:13;;;;;;;8.30;4.93;;;-2.10;53.00;;;;;;5072150;28;46757;-79
2024/01/29 06:31:40;;;;;;;7.23;4.17;;;-2.00;53.10;;;;;;5068479;28;46382;-78
2024/01/29 06:34:06;;;;;;;7.45;3.95;;;-2.10;52.90;;;;;;5068650;28;46446;-78
2024/01/29 06:36:31;;;;;;;7.97;4.50;;;-2.10;52.90;;;;;;5068910;27;46798;-79
2024/01/29 06:38:58;;;;;;;45.43;18.87;;;-2.10;53.00;;;;;;5066679;28;46779;-78
2024/01/29 06:41:25;;;;;;;21.75;9.75;;;-2.10;53.30;;;;;;5068915;28;46738;-79
2024/01/29 06:43:51;;;;;;;19.35;9.32;;;-2.20;53.30;;;;;;5066885;27;49203;-79
2024/01/29 06:46:17;;;;;;;10.80;5.50;;;-2.20;53.40;;;;;;5071394;28;47127;-78
2024/01/29 06:48:43;;;;;;;6.97;4.63;;;-2.20;53.40;;;;;;5067978;28;46542;-78
2024/01/29 06:51:08;;;;;;;7.53;5.00;;;-2.20;53.50;;;;;;5071041;28;46016;-80
2024/01/29 06:53:35;;;;;;;8.90;4.87;;;-2.20;53.50;;;;;;5067320;28;48204;-79
2024/01/29 06:56:04;;;;;;;11.52;5.68;;;-2.20;53.30;;;;;;5067516;28;46279;-78
2024/01/29 06:58:30;;;;;;;9.95;6.10;;;-2.10;53.30;;;;;;5068702;27;46371;-78
2024/01/29 07:00:56;;;;;;;11.35;6.47;;;-2.10;53.30;;;;;;5075557;27;46648;-80
2024/01/29 07:03:22;;;;;;;9.00;5.30;;;-2.00;53.10;;;;;;5083475;28;46465;-80
2024/01/29 07:05:50;;;;;;;8.03;5.10;;;-2.00;52.90;;;;;;5069476;27;46689;-79
2024/01/29 07:08:16;;;;;;;8.13;5.35;;;-1.90;52.70;;;;;;5070241;28;46565;-79
2024/01/29 07:10:42;;;;;;;8.90;6.10;;;-1.80;52.70;;;;;;5071157;28;46536;-78
2024/01/29 07:13:08;;;;;;;10.25;5.25;;;-1.80;52.70;;;;;;5069361;28;46414;-79
2024/01/29 07:15:34;;;;;;;9.13;5.23;;;-1.70;52.60;;;;;;5068654;28;46432;-79
2024/01/29 07:17:59;;;;;;;9.30;4.53;;;-1.60;52.50;;;;;;5068792;28;46459;-78
2024/01/29 07:20:27;;;;;;;8.77;4.90;;;-1.50;52.30;;;;;;5067696;28;46442;-79
2024/01/29 07:22:53;;;;;;;4.43;3.33;;;-1.50;52.10;;;;;;5051295;28;48396;-78
2024/01/29 07:25:19;;;;;;;6.43;3.30;;;-1.30;52.00;;;;;;5066410;27;46771;-79
2024/01/29 07:27:44;;;;;;;6.03;3.60;;;-1.30;51.80;;;;;;5069512;28;47260;-79
2024/01/29 07:30:11;;;;;;;7.33;3.90;;;-1.20;51.90;;;;;;5068489;28;46497;-79
2024/01/29 07:32:36;;;;;;;5.85;3.35;;;-1.20;51.80;;;;;;5071274;28;46768;-78
2024/01/29 07:35:03;;;;;;;5.70;3.23;;;-1.20;52.00;;;;;;5067299;28;46478;-78
2024/01/29 07:37:29;;;;;;;4.32;2.60;;;-1.00;52.00;;;;;;5051232;28;47041;-78
2024/01/29 07:39:58;;;;;;;5.85;2.72;;;-0.80;51.90;;;;;;5070521;28;46716;-80
2024/01/29 07:42:24;;;;;;;3.83;2.40;;;-0.70;51.70;;;;;;5053455;28;48107;-80
2024/01/29 07:44:51;;;;;;;3.30;2.27;;;-0.50;51.60;;;;;;5070922;28;46003;-79
2024/01/29 07:47:16;;;;;;;8.82;4.30;;;-0.40;51.40;;;;;;5074394;28;46423;-79
2024/01/29 07:49:42;;;;;;;5.50;2.27;;;-0.30;51.10;;;;;;5065258;28;46636;-81
2024/01/29 07:52:09;;;;;;;7.90;2.97;;;-0.20;51.00;;;;;;5068109;28;46025;-78
2024/01/29 07:54:35;;;;;;;7.75;3.42;;;0.00;50.90;;;;;;5069073;27;46670;-78
2024/01/29 07:57:00;;;;;;;7.20;4.10;;;0.10;50.80;;;;;;5068121;28;46958;-77
2024/01/29 07:59:26;;;;;;;7.70;3.70;;;0.20;50.60;;;;;;5066640;27;46764;-78
2024/01/29 08:01:51;;;;;;;9.17;3.93;;;0.30;50.50;;;;;;5070417;27;47648;-77
2024/01/29 08:04:17;;;;;;;7.73;3.70;;;0.30;50.70;;;;;;5053311;28;46586;-77
2024/01/29 08:06:43;;;;;;;5.20;2.67;;;0.30;50.80;;;;;;5068923;28;46516;-78
2024/01/29 08:09:08;;;;;;;6.80;3.10;;;0.40;50.90;;;;;;5071942;27;46289;-78
2024/01/29 08:11:34;;;;;;;10.10;4.17;;;0.50;51.00;;;;;;5069713;28;46561;-76
2024/01/29 08:14:00;;;;;;;9.70;3.50;;;0.50;51.00;;;;;;5068982;27;46567;-77
2024/01/29 08:16:25;;;;;;;12.20;5.07;;;0.70;51.00;;;;;;5071414;28;46493;-78
2024/01/29 08:18:51;;;;;;;9.60;3.97;;;0.80;50.80;;;;;;5073770;28;46451;-78
2024/01/29 08:21:17;;;;;;;11.00;5.63;;;0.90;50.80;;;;;;5074420;28;47194;-78
2024/01/29 08:23:43;;;;;;;9.30;4.30;;;1.00;50.70;;;;;;5073388;28;46685;-77
2024/01/29 08:26:09;;;;;;;7.50;4.30;;;1.10;50.60;;;;;;5062391;28;46407;-77
2024/01/29 08:28:35;;;;;;;12.70;3.57;;;1.30;50.50;;;;;;5070237;28;47381;-78
2024/01/29 08:31:01;;;;;;;6.60;3.05;;;1.30;50.50;;;;;;5054267;28;48125;-78
2024/01/29 08:33:28;;;;;;;5.33;3.23;;;1.50;50.40;;;;;;5068923;28;46089;-79
2024/01/29 08:35:55;;;;;;;4.80;3.17;;;1.60;50.10;;;;;;5072474;28;46738;-78
2024/01/29 08:38:20;;;;;;;9.07;3.28;;;1.70;50.00;;;;;;5071763;28;46129;-77
2024/01/29 08:40:46;;;;;;;6.17;3.50;;;1.80;49.90;;;;;;5067054;28;46473;-78
2024/01/29 08:43:11;;;;;;;6.10;3.00;;;1.90;49.90;;;;;;5067418;28;46515;-79
2024/01/29 08:45:37;;;;;;;3.47;2.40;;;2.10;49.80;;;;;;5067878;28;46494;-80
2024/01/29 08:48:06;;;;;;;6.10;2.83;;;2.30;49.70;;;;;;5066473;28;45980;-79
2024/01/29 08:50:32;;;;;;;5.43;2.75;;;2.40;49.50;;;;;;5065473;27;46632;-79
2024/01/29 08:52:58;;;;;;;5.05;3.10;;;2.60;49.40;;;;;;5067224;28;46464;-75
2024/01/29 08:55:24;;;;;;;8.70;4.63;;;2.70;49.20;;;;;;5057679;28;46870;-78
2024/01/29 08:57:49;;;;;;;12.07;3.73;;;2.90;48.90;;;;;;5057997;28;46642;-78
2024/01/29 09:00:15;;;;;;;3.37;1.97;;;3.00;48.80;;;;;;5066161;28;46097;-79
2024/01/29 09:02:41;;;;;;;4.65;2.50;;;3.10;48.40;;;;;;5069864;27;46250;-79
2024/01/29 09:05:08;;;;;;;6.03;2.93;;;3.20;48.40;;;;;;5046371;28;46716;-77
2024/01/29 09:07:34;;;;;;;6.30;3.10;;;3.30;48.30;;;;;;5066821;28;46152;-79
2024/01/29 09:09:59;;;;;;;5.37;3.10;;;3.40;48.50;;;;;;5065486;27;46160;-79
2024/01/29 09:12:25;;;;;;;13.33;3.37;;;3.50;48.40;;;;;;5067079;28;47035;-75
2024/01/29 09:14:50;;;;;;;4.40;2.73;;;3.70;48.10;;;;;;5068942;28;46496;-79
2024/01/29 09:17:16;;;;;;;6.17;3.10;;;3.80;47.70;;;;;;5065659;28;46953;-78
2024/01/29 09:19:45;;;;;;;5.67;3.53;;;3.90;47.40;;;;;;5068066;27;46523;-78
2024/01/29 09:22:13;;;;;;;7.38;3.70;;;4.10;47.60;;;;;;5068284;27;46599;-80
2024/01/29 09:24:39;;;;;;;6.82;3.75;;;4.20;47.60;;;;;;5069028;27;46471;-78
2024/01/29 09:27:04;;;;;;;9.70;3.30;;;4.30;47.70;;;;;;5062344;27;45918;-78
2024/01/29 09:29:30;;;;;;;9.07;3.63;;;4.50;47.90;;;;;;5055066;28;47927;-78
2024/01/29 09:31:56;;;;;;;12.83;5.80;;;4.70;47.80;;;;;;5060335;28;46498;-79
2024/01/29 09:34:24;;;;;;;8.87;4.00;;;4.80;47.50;;;;;;5065958;27;46706;-79
2024/01/29 09:36:50;;;;;;;13.23;4.50;;;4.90;47.30;;;;;;5066649;28;46616;-78
2024/01/29 09:39:15;;;;;;;14.67;4.47;;;4.90;47.10;;;;;;5066490;28;47178;-79
2024/01/29 09:41:42;;;;;;;13.03;4.33;;;5.00;46.90;;;;;;5069034;28;46276;-80
2024/01/29 09:44:09;;;;;;;11.75;4.22;;;5.10;46.80;;;;;;5067005;28;46443;-82
2024/01/29 09:46:37;;;;;;;6.80;3.60;;;5.20;46.60;;;;;;5066071;27;46345;-78
2024/01/29 09:49:03;;;;;;;5.43;3.00;;;5.30;46.20;;;;;;5067548;27;46238;-80
2024/01/29 09:51:31;;;;;;;5.53;2.30;;;5.30;46.10;;;;;;5068549;27;46396;-78
2024/01/29 09:53:59;;;;;;;6.60;3.43;;;5.40;46.20;;;;;;5069653;28;47220;-77
2024/01/29 09:56:24;;;;;;;5.17;2.90;;;5.40;46.20;;;;;;5066064;27;46368;-79
2024/01/29 09:58:51;;;;;;;7.03;2.37;;;5.50;46.30;;;;;;5067623;28;46565;-80
2024/01/29 10:01:19;;;;;;;4.30;2.40;;;5.60;46.00;;;;;;5069664;28;46723;-80
2024/01/29 10:03:46;;;;;;;6.43;2.80;;;5.70;45.70;;;;;;5067763;27;46522;-81
2024/01/29 10:06:12;;;;;;;4.23;2.80;;;5.80;45.20;;;;;;5066805;27;46418;-81
2024/01/29 10:08:39;;;;;;;6.17;2.90;;;5.90;45.00;;;;;;5068824;28;46462;-79
2024/01/29 10:11:05;;;;;;;3.90;2.67;;;5.90;44.70;;;;;;5068558;28;46465;-78
2024/01/29 10:13:31;;;;;;;4.50;2.30;;;6.00;44.60;;;;;;5060823;28;46869;-78
2024/01/29 10:15:57;;;;;;;4.00;2.10;;;6.10;44.40;;;;;;5069383;27;47402;-79
2024/01/29 10:18:22;;;;;;;3.60;2.27;;;6.10;44.00;;;;;;5062806;27;47338;-78
2024/01/29 10:21:01;;;;;;;6.47;2.40;;;6.20;43.70;;;;;;5068830;28;46767;-79
2024/01/29 10:23:28;;;;;;;4.47;2.20;;;6.30;43.10;;;;;;5068755;28;46519;-79
2024/01/29 10:25:57;;;;;;;4.10;2.00;;;6.50;42.70;;;;;;5069363;27;46929;-79
2024/01/29 10:28:26;;;;;;;3.17;1.93;;;6.60;42.20;;;;;;5065502;28;46888;-78
2024/01/29 10:30:55;;;;;;;2.97;1.57;;;6.60;41.60;;;;;;5066982;27;46704;-78
2024/01/29 10:33:21;;;;;;;6.10;2.30;;;6.70;41.30;;;;;;5067288;27;46450;-78
2024/01/29 10:35:48;;;;;;;5.30;2.00;;;6.90;40.70;;;;;;5068533;28;46399;-78
2024/01/29 10:38:18;;;;;;;5.00;2.20;;;7.00;40.10;;;;;;5067315;27;48389;-79
2024/01/29 10:40:45;;;;;;;3.30;2.00;;;7.10;39.30;;;;;;5066068;27;46744;-77
2024/01/29 10:43:19;;;;;;;3.87;2.30;;;7.20;38.60;;;;;;5068058;27;46524;-79
2024/01/29 10:45:49;;;;;;;4.67;1.90;;;7.40;37.40;;;;;;5064146;27;46373;-79
2024/01/29 10:48:22;;;;;;;5.33;2.50;;;7.50;37.20;;;;;;5067078;27;46715;-77
2024/01/29 10:50:49;;;;;;;7.20;3.03;;;7.70;36.30;;;;;;5069335;28;46476;-78
2024/01/29 10:53:19;;;;;;;8.10;3.13;;;7.80;35.90;;;;;;5065886;28;46689;-81
2024/01/29 10:55:50;;;;;;;7.17;3.80;;;8.00;35.40;;;;;;5052153;28;46634;-79
2024/01/29 10:58:17;;;;;;;9.20;4.53;;;8.20;34.80;;;;;;5069543;28;46608;-78
2024/01/29 11:00:44;;;;;;;7.50;3.80;;;8.30;34.60;;;;;;5067579;28;46729;-79
2024/01/29 11:03:12;;;;;;;6.27;3.57;;;8.40;34.30;;;;;;5068300;28;46569;-79
2024/01/29 11:05:39;;;;;;;7.60;3.80;;;8.60;34.30;;;;;;5047798;28;46232;-80
2024/01/29 11:08:09;;;;;;;6.40;3.70;;;8.60;34.00;;;;;;5069130;28;47127;-80
2024/01/29 11:10:35;;;;;;;9.57;3.90;;;8.60;34.00;;;;;;5067323;28;46425;-78
2024/01/29 11:13:04;;;;;;;10.37;3.70;;;8.80;33.60;;;;;;5066989;27;46879;-79
2024/01/29 11:15:31;;;;;;;12.90;3.87;;;8.90;33.30;;;;;;5066890;27;46859;-79
2024/01/29 11:17:57;;;;;;;5.63;3.13;;;9.00;33.10;;;;;;5067792;28;46672;-79
2024/01/29 11:20:23;;;;;;;5.03;2.80;;;9.00;32.80;;;;;;5068511;28;46317;-77
2024/01/29 11:22:50;;;;;;;4.97;3.03;;;9.10;32.70;;;;;;5067980;27;46506;-78
2024/01/29 11:25:17;;;;;;;6.40;3.60;;;9.10;32.20;;;;;;5065665;27;46653;-80
2024/01/29 11:27:44;;;;;;;7.50;3.37;;;9.20;31.90;;;;;;5064085;27;47498;-79
2024/01/29 11:30:13;;;;;;;6.80;3.67;;;9.30;31.70;;;;;;5051340;28;45879;-78
2024/01/29 11:32:40;;;;;;;5.77;3.20;;;9.30;31.20;;;;;;5047919;28;46694;-81
2024/01/29 11:35:14;;;;;;;6.07;2.80;;;9.30;31.10;;;;;;5049430;28;46660;-80
2024/01/29 11:37:41;;;;;;;5.37;3.00;;;9.30;30.70;;;;;;5066492;28;46626;-80
2024/01/29 11:40:34;;;;;;;4.03;2.97;;;9.30;30.80;;;;;;5050604;28;46815;-79
2024/01/29 11:43:11;;;;;;;3.47;2.23;;;9.40;30.00;;;;;;5060625;27;46574;-79
2024/01/29 11:45:37;;;;;;;6.83;2.00;;;9.40;29.80;;;;;;5049565;28;46939;-79
2024/01/29 11:48:11;;;;;;;5.07;2.73;;;9.40;29.70;;;;;;5066427;28;47094;-79
2024/01/29 11:50:39;;;;;;;5.10;2.00;;;9.50;29.20;;;;;;5066303;27;46849;-80
2024/01/29 11:53:04;;;;;;;3.90;2.03;;;9.40;29.20;;;;;;5070372;28;46858;-81
2024/01/29 11:55:31;;;;;;;4.90;2.97;;;9.40;26.50;;;;;;5048734;28;46881;-80
2024/01/29 11:57:57;;;;;;;4.47;1.90;;;9.40;27.50;;;;;;5071133;27;46706;-79
2024/01/29 12:00:23;;;;;;;5.77;2.23;;;9.60;26.60;;;;;;5067024;28;46446;-82
2024/01/29 12:02:50;;;;;;;5.07;2.50;;;9.50;26.60;;;;;;5070448;28;46504;-81
2024/01/29 12:05:17;;;;;;;6.53;2.80;;;9.50;26.50;;;;;;5065779;28;46525;-79
2024/01/29 12:07:47;;;;;;;4.87;2.70;;;9.60;26.50;;;;;;5066906;27;48189;-79
2024/01/29 12:10:13;;;;;;;6.93;2.90;;;9.60;26.40;;;;;;5066916;28;46654;-78
2024/01/29 12:12:38;;;;;;;4.30;2.50;;;9.80;25.10;;;;;;5048316;28;46460;-80
2024/01/29 12:15:06;;;;;;;5.50;2.60;;;9.80;25.00;;;;;;5069352;27;46548;-79
2024/01/29 12:17:32;;;;;;;4.60;2.37;;;9.90;24.80;;;;;;5054065;28;48304;-79
2024/01/29 12:19:58;;;;;;;4.90;3.07;;;10.00;23.50;;;;;;5068086;27;45996;-79
2024/01/29 12:22:24;;;;;;;7.70;2.73;;;10.10;23.10;;;;;;5066564;27;46721;-78
2024/01/29 12:24:50;;;;;;;8.70;3.50;;;10.00;22.80;;;;;;5067271;28;46538;-78
2024/01/29 12:27:17;;;;;;;6.80;3.60;;;10.10;22.60;;;;;;5068877;28;47279;-77
2024/01/29 12:29:45;;;;;;;13.60;4.20;;;10.10;22.40;;;;;;5065965;27;46979;-80
2024/01/29 12:32:11;;;;;;;8.00;4.33;;;10.20;21.60;;;;;;5067643;28;46507;-79
2024/01/29 12:34:50;;;;;;;6.67;3.70;;;10.20;21.70;;;;;;5063491;27;46895;-77
2024/01/29 12:37:21;;;;;;;6.90;3.43;;;10.20;21.50;;;;;;5066840;28;46522;-78
2024/01/29 12:39:51;;;;;;;6.83;3.97;;;10.30;21.70;;;;;;5047231;28;46598;-79
2024/01/29 12:42:16;;;;;;;6.27;3.23;;;10.30;21.80;;;;;;5066814;28;46797;-78